Latest Weather Observations for Canberra

IDN60801

Issued at 6:02 pm EDT Wednesday 29 March 2017 (issued every 30 minutes, with the page automatically refreshed every 10 minutes)

About weather observations | Map of weather stations | Latest weather observations for NSW | Other Formats
Station Details ID: 070351 Name: CANBERRA AIRPORT Lat: -35.31 Lon: 149.20 Height: 577.05 m
Data from the previous 72 hours. | See also: Recent months at Canberra
Date/Time
EDT
Temp
°C
App
Temp
°C
Dew
Point
°C
Rel
Hum
%
Delta-T
°C
Wind Press
QNH
hPa
Press
MSL
hPa
Rain since
9am
mm
Dir  Spd
km/h
Gust
km/h
Spd
kts
Gust
kts
29/06:00pm 24.6 18.8 6.4 31 9.7 NNW 26 32 14 17 1009.6 1007.8 -
29/05:30pm 25.3 19.1 6.0 29 10.2 NNW 28 37 15 20 1009.5 1007.5 0.0
29/05:00pm 26.0 18.9 5.6 27 10.8 NNW 32 41 17 22 1009.6 1007.6 0.0
29/04:30pm 26.4 19.5 4.8 25 11.3 NNW 30 41 16 22 1009.7 1007.8 0.0
29/04:00pm 26.4 18.6 3.0 22 11.8 NNW 33 41 18 22 1009.8 1007.9 0.0
29/03:30pm 26.5 18.8 2.4 21 12.1 NNW 32 41 17 22 1010.0 1008.1 0.0
29/03:00pm 26.6 21.1 3.8 23 11.7 NW 22 32 12 17 1010.3 1008.4 0.0
29/02:30pm 26.4 20.9 5.9 27 10.9 NNW 24 33 13 18 1010.8 1008.8 0.0
29/02:00pm 25.4 20.6 5.6 28 10.4 NNW 20 28 11 15 1011.3 1009.4 0.0
29/01:30pm 25.3 20.4 5.0 27 10.6 NW 20 28 11 15 1011.8 1009.9 0.0
29/01:00pm 24.5 20.5 4.8 28 10.2 NW 15 24 8 13 1012.1 1010.2 0.0
29/12:30pm 23.4 19.1 5.3 31 9.4 NW 17 22 9 12 1012.8 1010.9 0.0
29/12:00pm 22.3 17.8 6.1 35 8.4 NW 19 24 10 13 1013.1 1011.2 0.0
29/11:30am 18.8 17.3 10.4 58 4.6 NNW 9 13 5 7 1013.6 1011.7 0.0
29/11:00am 17.0 17.2 11.7 71 3.0 SW 2 7 1 4 1014.3 1012.3 0.0
29/10:30am 14.5 15.0 11.7 83 1.5 CALM 0 6 0 3 1014.4 1012.5 0.0
29/10:08am 13.8 14.0 12.9 94 0.5 SSW 4 9 2 5 1014.4 1012.5 0.0
29/10:00am 12.7 13.5 12.5 99 0.1 CALM 0 0 0 0 1014.5 1012.6 0.0
29/09:47am 11.9 12.4 11.7 99 0.1 CALM 0 0 0 0 1014.5 1012.6 0.0
29/09:30am 11.3 11.7 11.1 99 0.1 CALM 0 4 0 2 1014.6 1012.7 0.0
29/09:00am 10.9 9.8 10.7 99 0.1 NNW 7 9 4 5 1014.4 1012.5 0.0
29/08:30am 10.4 9.2 10.2 99 0.1 N 7 7 4 4 1014.0 1012.1 0.0
29/08:00am 9.9 8.8 9.8 99 0.1 N 6 7 3 4 1014.0 1012.1 0.0
29/07:30am 10.2 9.5 10.1 99 0.1 NE 4 7 2 4 1013.7 1011.8 0.0
29/07:19am 10.0 8.7 9.9 99 0.1 NE 7 7 4 4 1013.6 1011.7 0.0
29/07:00am 10.3 9.2 10.1 99 0.1 NE 6 7 3 4 1013.5 1011.6 0.0
29/06:30am 11.0 10.1 10.8 99 0.1 ENE 6 9 3 5 1013.4 1011.5 0.0
29/06:03am 10.5 10.6 10.3 99 0.1 CALM 0 0 0 0 1013.3 1011.4 0.0
29/06:00am 10.4 10.5 10.2 99 0.1 CALM 0 0 0 0 1013.3 1011.4 0.0
29/05:30am 9.8 9.8 9.7 99 0.1 CALM 0 0 0 0 1013.3 1011.4 0.0
29/05:12am 10.1 9.4 10.0 99 0.1 N 4 6 2 3 1013.3 1011.4 0.0
29/05:08am 10.0 8.9 9.9 99 0.1 N 6 7 3 4 1013.3 1011.4 0.0
29/05:00am 9.8 9.4 9.7 99 0.1 ESE 2 7 1 4 1013.3 1011.4 0.0
29/04:50am 9.6 9.5 9.5 99 0.1 CALM 0 0 0 0 1013.2 1011.3 0.0
29/04:30am 9.1 8.9 9.0 99 0.1 CALM 0 0 0 0 1013.2 1011.3 0.0
29/04:05am 9.0 8.8 8.9 99 0.1 CALM 0 0 0 0 1013.4 1011.5 0.0
29/04:00am 9.1 8.9 9.0 99 0.1 CALM 0 0 0 0 1013.4 1011.5 0.0
29/03:30am 9.2 7.7 9.1 99 0.1 ESE 7 7 4 4 1013.7 1011.8 0.0
29/03:11am 9.8 8.4 9.5 98 0.2 N 7 11 4 6 1013.7 1011.8 0.0
29/03:00am 9.8 8.3 9.3 97 0.3 NNW 7 11 4 6 1013.9 1012.0 0.0
29/02:30am 11.3 11.7 11.1 99 0.1 CALM 0 0 0 0 1013.9 1012.0 0.0
29/02:21am 11.3 11.7 11.1 99 0.1 CALM 0 0 0 0 1014.0 1012.1 0.0
29/02:00am 10.9 11.1 10.7 99 0.1 CALM 0 0 0 0 1014.1 1012.2 0.0
29/01:55am 10.9 11.1 10.7 99 0.1 CALM 0 0 0 0 1014.3 1012.3 0.0
29/01:30am 10.8 10.9 10.0 95 0.4 CALM 0 0 0 0 1014.5 1012.6 0.0
29/01:00am 12.6 11.9 12.1 97 0.3 ENE 7 7 4 4 1014.7 1012.8 0.0
29/12:30am 12.7 12.1 11.8 94 0.5 ESE 6 9 3 5 1015.0 1013.1 0.0
29/12:00am 12.7 12.4 11.6 93 0.6 S 4 9 2 5 1015.1 1013.2 0.0
 
Date/Time
EDT
Temp
°C
App
Temp
°C
Dew
Point
°C
Rel
Hum
%
Delta-T
°C
Wind Press
QNH
hPa
Press
MSL
hPa
Rain since
9am
mm
Dir  Spd
km/h
Gust
km/h
Spd
kts
Gust
kts
28/11:30pm 12.7 13.3 11.8 94 0.5 CALM 0 0 0 0 1015.1 1013.2 0.0
28/11:00pm 14.2 13.4 12.8 91 0.8 N 9 11 5 6 1015.2 1013.3 0.0
28/10:30pm 15.6 14.9 12.0 79 2.0 N 7 9 4 5 1015.2 1013.3 0.0
28/10:00pm 15.9 14.4 9.1 64 3.6 N 7 9 4 5 1015.0 1013.1 0.0
28/09:30pm 17.8 14.7 5.7 45 6.1 ENE 11 13 6 7 1014.8 1012.9 0.0
28/09:00pm 17.6 15.0 5.9 46 5.9 NE 9 11 5 6 1014.4 1012.5 0.0
28/08:30pm 19.2 15.1 6.0 42 6.7 NNE 17 19 9 10 1013.8 1011.9 0.0
28/08:00pm 20.5 16.5 6.5 40 7.3 NNE 17 26 9 14 1013.6 1011.7 0.0
28/07:30pm 21.4 17.1 5.3 35 8.2 NNE 17 22 9 12 1013.5 1011.6 0.0
28/07:00pm 22.2 18.5 4.3 31 9.0 NNE 13 15 7 8 1013.5 1011.6 0.0
28/06:30pm 23.8 18.7 4.2 28 9.9 NNW 20 26 11 14 1013.1 1011.2 0.0
28/06:00pm 25.1 20.3 5.8 29 10.2 NNW 20 28 11 15 1012.8 1010.9 0.0
28/05:30pm 26.1 22.3 9.0 34 9.6 NNW 19 26 10 14 1012.7 1010.7 0.0
28/05:00pm 26.7 23.1 10.0 35 9.5 NNW 19 24 10 13 1012.5 1010.5 0.0
28/04:30pm 26.7 23.7 10.8 37 9.2 N 17 24 9 13 1012.3 1010.4 0.0
28/04:00pm 26.8 24.5 11.7 39 8.9 N 15 33 8 18 1012.6 1010.6 0.0
28/03:30pm 26.5 24.0 11.0 38 9.0 NW 15 22 8 12 1012.7 1010.7 0.0
28/03:00pm 26.5 25.1 12.2 41 8.5 NNW 11 17 6 9 1013.0 1011.1 0.0
28/02:30pm 25.9 24.2 12.4 43 8.0 NNW 13 20 7 11 1013.3 1011.4 0.0
28/02:00pm 25.0 24.9 15.0 53 6.1 NNW 9 13 5 7 1013.7 1011.8 0.0
28/01:30pm 23.8 22.9 14.8 57 5.5 N 13 20 7 11 1014.3 1012.3 0.0
28/01:00pm 22.6 22.2 15.2 63 4.5 NNE 11 19 6 10 1014.8 1012.9 0.0
28/12:30pm 21.9 20.5 15.5 67 3.9 NNE 17 26 9 14 1015.3 1013.4 0.0
28/12:00pm 21.2 20.5 15.5 70 3.5 N 13 20 7 11 1015.5 1013.6 0.0
28/11:30am 20.6 20.3 15.4 72 3.2 NNE 11 17 6 9 1015.7 1013.8 0.0
28/11:00am 19.3 19.2 15.0 76 2.6 NE 9 13 5 7 1015.8 1014.0 0.0
28/10:30am 18.8 18.1 15.3 80 2.1 NNE 13 17 7 9 1015.8 1014.0 0.0
28/10:00am 18.6 18.2 15.1 80 2.1 NNE 11 15 6 8 1015.7 1013.8 0.0
28/09:30am 18.4 17.6 15.1 81 2.0 NNE 13 17 7 9 1015.5 1013.6 0.0
28/09:15am 18.7 18.9 15.8 83 1.8 NNE 9 17 5 9 1015.4 1013.5 0.0
28/09:00am 18.0 18.1 15.4 85 1.6 N 9 13 5 7 1015.3 1013.4 0.4
28/08:30am 17.7 18.3 15.7 88 1.2 N 7 9 4 5 1015.0 1013.1 0.4
28/08:00am 17.2 17.4 15.7 91 0.9 NNW 9 11 5 6 1014.9 1013.0 0.4
28/07:30am 17.2 17.3 15.5 90 1.0 N 9 13 5 7 1014.4 1012.5 0.4
28/07:00am 18.2 19.4 16.9 92 0.8 NE 6 13 3 7 1014.0 1012.1 0.4
28/06:30am 18.2 19.9 18.0 99 0.1 ENE 6 7 3 4 1013.6 1011.7 0.4
28/06:00am 18.3 20.0 18.1 99 0.1 NNE 6 11 3 6 1013.4 1011.5 0.4
28/05:30am 17.4 19.9 17.2 99 0.1 CALM 0 0 0 0 1013.2 1011.3 0.4
28/05:00am 16.8 19.0 16.6 99 0.1 CALM 0 0 0 0 1013.0 1011.1 0.4
28/04:30am 16.9 18.9 15.9 94 0.6 CALM 0 0 0 0 1012.9 1011.0 0.4
28/04:00am 18.0 19.1 17.0 94 0.6 NNE 7 9 4 5 1012.9 1011.0 0.4
28/03:30am 18.5 20.3 17.3 93 0.7 SE 4 9 2 5 1013.1 1011.2 0.4
28/03:26am 18.6 20.7 17.3 92 0.8 NE 2 9 1 5 1013.0 1011.1 0.4
28/03:00am 18.4 19.6 17.4 94 0.6 E 7 7 4 4 1013.0 1011.1 0.4
28/02:30am 18.5 19.7 17.3 93 0.7 ESE 7 9 4 5 1013.0 1011.1 0.4
28/02:28am 18.4 19.5 17.2 93 0.7 ESE 7 9 4 5 1013.0 1011.1 0.4
28/02:00am 19.7 21.2 17.7 88 1.3 NNW 6 9 3 5 1012.9 1011.0 0.4
28/01:30am 19.2 20.0 17.3 89 1.2 NNW 9 11 5 6 1012.5 1010.5 0.4
28/01:00am 20.1 20.9 18.1 88 1.3 NNE 11 15 6 8 1012.6 1010.6 0.4
28/12:30am 20.4 21.6 18.3 88 1.3 NE 9 15 5 8 1013.1 1011.2 0.4
28/12:00am 20.7 21.6 18.5 87 1.4 NNE 11 13 6 7 1013.3 1011.4 0.4
 
Date/Time
EDT
Temp
°C
App
Temp
°C
Dew
Point
°C
Rel
Hum
%
Delta-T
°C
Wind Press
QNH
hPa
Press
MSL
hPa
Rain since
9am
mm
Dir  Spd
km/h
Gust
km/h
Spd
kts
Gust
kts
27/11:30pm 20.6 21.8 18.2 86 1.5 N 9 13 5 7 1013.6 1011.7 0.2
27/11:00pm 20.8 21.5 18.0 84 1.8 WSW 11 15 6 8 1014.3 1012.3 0.2
27/10:30pm 20.9 22.3 17.9 83 1.9 NNE 7 11 4 6 1013.3 1011.4 0.2
27/10:00pm 20.5 21.9 17.9 85 1.6 W 7 11 4 6 1013.0 1011.1 0.2
27/09:30pm 22.0 22.5 18.4 80 2.3 NNE 13 17 7 9 1012.5 1010.5 0.2
27/09:00pm 22.1 20.5 18.3 79 2.4 NW 24 33 13 18 1013.5 1011.6 0.2
27/08:30pm 22.8 19.4 18.1 75 3.0 WNW 33 59 18 32 1013.4 1011.5 0.2
27/08:27pm 23.4 21.0 18.3 73 3.3 WNW 28 59 15 32 1013.5 1011.6 0.2
27/08:00pm 25.0 25.0 18.0 65 4.5 WNW 15 22 8 12 1012.2 1010.3 0.0
27/07:54pm 26.1 25.5 17.5 59 5.5 WNW 17 24 9 13 1012.2 1010.3 0.0
27/07:48pm 26.4 25.0 16.9 56 6.0 NW 20 26 11 14 1011.8 1009.9 0.0
27/07:30pm 26.1 25.0 16.4 55 6.1 NNW 17 24 9 13 1010.4 1008.5 0.0
27/07:00pm 26.3 24.7 16.0 53 6.5 NNW 19 22 10 12 1009.9 1008.0 0.0
27/06:30pm 27.8 25.9 15.8 48 7.5 NNW 20 28 11 15 1009.8 1007.9 0.0
27/06:00pm 28.3 25.8 16.2 47 7.7 NNW 24 33 13 18 1010.3 1008.4 0.0
27/05:30pm 29.1 27.5 16.6 46 8.0 NW 20 28 11 15 1010.4 1008.5 0.0
27/05:00pm 28.3 24.8 15.6 46 8.0 NNW 28 35 15 19 1010.9 1008.9 0.0
27/04:30pm 29.2 26.5 15.7 44 8.5 NNW 24 33 13 18 1011.1 1009.1 0.0
27/04:00pm 29.3 27.3 16.5 46 8.2 NW 22 35 12 19 1011.6 1009.7 0.0
27/03:30pm 29.1 26.0 15.6 44 8.5 NW 26 37 14 20 1012.0 1010.1 0.0
27/03:00pm 28.6 24.8 15.8 45 8.1 NW 30 41 16 22 1012.6 1010.6 0.0
27/02:30pm 28.4 24.6 15.7 46 8.0 NNW 30 41 16 22 1013.0 1011.1 0.0
27/02:00pm 28.1 23.8 15.4 46 7.9 NW 32 41 17 22 1013.5 1011.6 0.0
27/01:30pm 27.3 24.5 15.3 48 7.5 NW 24 30 13 16 1014.0 1012.1 0.0
27/01:00pm 26.8 22.5 14.5 46 7.6 NW 30 37 16 20 1014.5 1012.6 0.0
27/12:30pm 26.6 23.5 14.4 47 7.5 NW 24 33 13 18 1015.1 1013.2 0.0
27/12:00pm 25.6 23.9 14.7 51 6.7 NW 17 24 9 13 1015.8 1014.0 0.0
27/11:30am 24.3 23.8 15.8 59 5.3 WNW 13 17 7 9 1016.3 1014.4 0.0
27/11:00am 22.3 22.6 14.9 63 4.5 NW 7 11 4 6 1016.6 1014.7 0.0
27/10:30am 21.7 22.6 15.1 66 4.0 E 4 9 2 5 1016.9 1015.0 0.0
27/10:00am 20.0 21.8 15.4 75 2.8 CALM 0 0 0 0 1017.2 1015.3 0.0
27/09:30am 18.1 19.4 15.2 83 1.7 SE 2 6 1 3 1017.4 1015.6 0.0
27/09:00am 16.0 17.9 15.8 99 0.1 CALM 0 0 0 0 1017.7 1015.9 0.0
27/08:53am 15.5 17.2 15.3 99 0.1 CALM 0 0 0 0 1017.6 1015.8 0.0
27/08:30am 14.8 15.1 14.6 99 0.1 NE 6 11 3 6 1017.4 1015.6 0.0
27/08:24am 14.7 14.4 14.5 99 0.1 NNE 9 11 5 6 1017.2 1015.3 0.0
27/08:20am 14.5 14.2 14.3 99 0.1 N 9 11 5 6 1017.3 1015.5 0.0
27/08:00am 14.1 15.3 13.9 99 0.1 CALM 0 0 0 0 1017.5 1015.7 0.0
27/07:30am 13.2 13.0 13.0 99 0.1 SE 6 7 3 4 1017.3 1015.5 0.0
27/07:00am 13.1 14.0 12.9 99 0.1 CALM 0 0 0 0 1017.2 1015.3 0.0
27/06:52am 13.3 14.3 13.1 99 0.1 CALM 0 0 0 0 1017.1 1015.2 0.0
27/06:37am 13.1 12.9 12.9 99 0.1 ESE 6 7 3 4 1017.0 1015.1 0.0
27/06:30am 13.4 13.1 13.2 99 0.1 E 7 9 4 5 1016.9 1015.0 0.0
27/06:08am 13.1 12.9 12.9 99 0.1 E 6 7 3 4 1016.9 1015.0 0.0
27/06:00am 13.1 13.6 12.8 98 0.2 W 2 7 1 4 1016.8 1014.9 0.0
27/05:30am 14.2 15.5 14.0 99 0.1 CALM 0 0 0 0 1016.8 1014.9 0.0
27/05:00am 14.1 15.3 13.8 98 0.2 CALM 0 0 0 0 1016.6 1014.7 0.0
27/04:30am 14.3 14.2 14.0 98 0.2 NNW 7 7 4 4 1016.8 1014.9 0.0
27/04:00am 14.6 14.6 13.6 94 0.6 N 6 9 3 5 1017.0 1015.1 0.0
27/03:34am 15.9 15.5 15.1 95 0.5 E 11 13 6 7 1017.2 1015.3 0.0
27/03:30am 16.1 15.7 15.3 95 0.5 E 11 13 6 7 1017.3 1015.5 0.0
27/03:00am 16.3 17.9 15.0 92 0.8 CALM 0 0 0 0 1017.7 1015.9 0.0
27/02:30am 16.4 18.1 15.3 93 0.7 CALM 0 0 0 0 1017.8 1016.0 0.0
27/02:00am 16.2 17.2 15.4 95 0.5 ESE 4 6 2 3 1018.1 1016.2 0.0
27/01:42am 15.8 16.2 14.7 93 0.6 ESE 6 9 3 5 1018.2 1016.3 0.0
27/01:30am 15.9 17.5 14.8 93 0.6 CALM 0 0 0 0 1018.3 1016.4 0.0
27/01:00am 15.7 15.9 14.2 91 0.9 ENE 6 9 3 5 1018.5 1016.6 0.0
27/12:30am 17.0 17.4 15.2 89 1.1 E 7 9 4 5 1018.6 1016.7 0.0
27/12:00am 17.2 17.1 15.0 87 1.3 SSE 9 11 5 6 1018.7 1016.8 0.0
 
Date/Time
EDT
Temp
°C
App
Temp
°C
Dew
Point
°C
Rel
Hum
%
Delta-T
°C
Wind Press
QNH
hPa
Press
MSL
hPa
Rain since
9am
mm
Dir  Spd
km/h
Gust
km/h
Spd
kts
Gust
kts
26/11:30pm 18.9 19.4 15.6 81 2.0 SSE 7 9 4 5 1018.7 1016.8 0.0
26/11:00pm 19.0 20.2 15.9 82 1.9 SSE 4 13 2 7 1018.7 1016.8 0.0
26/10:30pm 19.7 20.6 16.0 79 2.3 SSE 6 11 3 6 1018.7 1016.8 0.0
26/10:00pm 20.1 20.4 16.1 78 2.5 ESE 9 11 5 6 1018.4 1016.5 0.0
26/09:30pm 20.9 22.6 16.1 74 3.0 ESE 2 7 1 4 1018.0 1016.1 0.0
26/09:00pm 21.1 20.9 15.6 71 3.4 ENE 11 15 6 8 1017.5 1015.7 0.0
26/08:30pm 21.6 19.8 15.4 68 3.8 ENE 19 26 10 14 1017.3 1015.5 0.0
26/08:00pm 22.2 21.7 14.8 63 4.5 E 11 17 6 9 1016.8 1014.9 0.0
26/07:30pm 22.8 21.2 11.5 49 6.5 NE 11 15 6 8 1016.3 1014.4 0.0
26/07:00pm 24.3 22.6 11.3 44 7.5 NE 11 15 6 8 1015.9 1014.1 0.0
26/06:30pm 26.0 23.5 11.0 39 8.7 NE 15 19 8 10 1015.7 1013.8 0.0

Other Formats:

Comma delimited format used in spreadsheet applications
http://www.bom.gov.au/fwo/IDN60801/IDN60801.94926.axf

JavaScript Object Notation format (JSON) in row-major order
http://www.bom.gov.au/fwo/IDN60801/IDN60801.94926.json